Time;durP1;ratioP1;P1;durP2;ratioP2;P2;SDS_P1;SDS_P2;PMS_P1;PMS_P2;Temp;Humidity;BMP_temperature;BMP_pressure;BME280_temperature;BME280_humidity;BME280_pressure;Samples;Min_cycle;Max_cycle;Signal;HPM_P1;HPM_P2
2024/01/10 00:01:29;;;;;;;15.70;9.37;;;;;;;-3.82;94.89;98931.84;5114285;28;20438;-74
2024/01/10 00:03:55;;;;;;;15.90;8.87;;;;;;;-3.75;90.42;98933.03;5114174;28;20912;-74
2024/01/10 00:06:23;;;;;;;13.33;8.87;;;;;;;-3.81;91.55;98930.88;5114564;28;20453;-74
2024/01/10 00:08:49;;;;;;;15.40;9.27;;;;;;;-3.79;89.10;98934.19;5114255;28;20922;-74
2024/01/10 00:11:16;;;;;;;15.50;9.83;;;;;;;-3.61;91.70;98927.69;5114517;28;20440;-74
2024/01/10 00:13:42;;;;;;;16.30;9.73;;;;;;;-3.84;90.04;98923.31;5114101;28;20475;-74
2024/01/10 00:16:13;;;;;;;14.33;8.73;;;;;;;-3.82;93.50;98926.63;5114438;28;20437;-74
2024/01/10 00:18:40;;;;;;;17.40;9.57;;;;;;;-3.81;93.48;98930.03;5114440;28;20484;-74
2024/01/10 00:21:08;;;;;;;15.13;9.37;;;;;;;-3.89;93.83;98927.19;5113859;28;20551;-74
2024/01/10 00:23:34;;;;;;;14.20;9.37;;;;;;;-3.96;95.49;98921.59;5114362;28;20423;-74
2024/01/10 00:26:01;;;;;;;15.87;10.00;;;;;;;-3.86;95.06;98926.94;5114040;28;20930;-74
2024/01/10 00:28:27;;;;;;;14.30;9.73;;;;;;;-3.81;92.40;98923.09;5114223;28;20431;-74
2024/01/10 00:30:53;;;;;;;12.60;8.87;;;;;;;-3.85;90.94;98924.25;5114135;28;20459;-74
2024/01/10 00:33:20;;;;;;;15.80;9.37;;;;;;;-3.87;92.53;98918.34;5113773;28;20989;-74
2024/01/10 00:35:47;;;;;;;17.17;9.70;;;;;;;-3.85;92.77;98918.25;5113822;28;20439;-74
2024/01/10 00:38:14;;;;;;;14.67;9.47;;;;;;;-3.85;92.18;98923.44;5113246;28;20858;-74
2024/01/10 00:40:41;;;;;;;14.63;8.60;;;;;;;-3.80;91.34;98916.16;5113713;28;20540;-74
2024/01/10 00:43:07;;;;;;;16.57;9.43;;;;;;;-3.84;89.05;98914.69;5113775;28;20793;-74
2024/01/10 00:45:34;;;;;;;17.77;9.50;;;;;;;-3.78;86.18;98909.06;5113684;28;20431;-74
2024/01/10 00:48:01;;;;;;;15.50;8.40;;;;;;;-3.74;86.62;98910.50;5113666;28;20459;-74
2024/01/10 00:50:27;;;;;;;13.03;8.60;;;;;;;-3.74;84.35;98916.53;5113605;28;20823;-74
2024/01/10 00:52:53;;;;;;;15.13;8.53;;;;;;;-3.70;83.32;98910.16;5113514;28;20479;-74
2024/01/10 00:55:20;;;;;;;12.83;8.33;;;;;;;-3.70;85.13;98904.97;5113875;28;20440;-74
2024/01/10 00:57:46;;;;;;;13.30;8.67;;;;;;;-3.73;86.67;98914.75;5113822;28;20450;-74
2024/01/10 01:00:13;;;;;;;13.23;8.70;;;;;;;-3.67;89.35;98922.13;5113490;28;20529;-74
2024/01/10 01:02:40;;;;;;;13.00;8.90;;;;;;;-3.71;83.14;98915.50;5113549;28;20836;-74
2024/01/10 01:05:07;;;;;;;13.63;8.53;;;;;;;-3.70;81.47;98914.53;5113857;28;20443;-74
2024/01/10 01:07:34;;;;;;;12.90;7.97;;;;;;;-3.69;82.49;98911.00;5113762;28;20439;-74
2024/01/10 01:10:01;;;;;;;13.90;8.47;;;;;;;-3.63;83.47;98907.94;5113701;28;20469;-74
2024/01/10 01:12:27;;;;;;;11.70;7.73;;;;;;;-3.70;81.49;98917.94;5113712;28;20467;-74
2024/01/10 01:14:54;;;;;;;11.60;7.80;;;;;;;-3.75;81.48;98921.84;5113733;28;20527;-74
2024/01/10 01:17:20;;;;;;;12.07;8.50;;;;;;;-3.80;81.33;98919.56;5113381;28;20436;-74
2024/01/10 01:19:47;;;;;;;12.90;8.10;;;;;;;-3.68;80.54;98928.25;5113602;28;20827;-74
2024/01/10 01:22:13;;;;;;;13.50;8.13;;;;;;;-3.66;80.98;98929.78;5113378;28;20443;-74
2024/01/10 01:24:39;;;;;;;12.47;8.10;;;;;;;-3.70;82.29;98924.94;5113631;28;20467;-74
2024/01/10 01:27:06;;;;;;;11.70;7.90;;;;;;;-3.67;81.23;98922.94;5113288;28;20953;-74
2024/01/10 01:29:32;;;;;;;13.87;8.03;;;;;;;-3.64;81.43;98935.72;5113227;28;20452;-74
2024/01/10 01:31:58;;;;;;;12.70;7.77;;;;;;;-3.55;78.13;98931.63;5113286;28;20940;-74
2024/01/10 01:34:25;;;;;;;12.90;8.40;;;;;;;-3.50;78.09;98930.38;5113486;28;20853;-74
2024/01/10 01:36:51;;;;;;;14.43;8.20;;;;;;;-3.47;78.46;98927.56;5113607;28;20439;-74
2024/01/10 01:39:18;;;;;;;13.67;8.27;;;;;;;-3.46;77.77;98934.41;5113544;28;20456;-74
2024/01/10 01:41:45;;;;;;;12.33;8.10;;;;;;;-3.48;78.58;98923.28;5113545;28;20436;-74
2024/01/10 01:44:11;;;;;;;13.63;8.70;;;;;;;-3.42;76.63;98925.44;5113502;28;20466;-74
2024/01/10 01:46:40;;;;;;;12.97;7.53;;;;;;;-3.49;76.74;98921.63;5113442;28;20453;-74
2024/01/10 01:49:06;;;;;;;13.57;7.90;;;;;;;-3.55;78.89;98927.25;5113718;28;20500;-74
2024/01/10 01:51:36;;;;;;;13.60;8.10;;;;;;;-3.48;79.12;98917.25;5116897;28;20442;-74
2024/01/10 01:54:04;;;;;;;12.37;7.90;;;;;;;-3.31;76.74;98922.88;5116782;28;20835;-74
2024/01/10 01:56:31;;;;;;;14.00;8.77;;;;;;;-3.28;76.64;98920.06;5117174;28;20790;-74
2024/01/10 01:58:57;;;;;;;11.70;8.10;;;;;;;-3.37;76.72;98920.75;5116725;27;20948;-74
2024/01/10 02:01:24;;;;;;;15.27;8.70;;;;;;;-3.52;78.14;98914.03;5116786;28;20427;-74
2024/01/10 02:03:50;;;;;;;10.93;7.60;;;;;;;-3.55;77.62;98910.84;5116732;28;20930;-74
2024/01/10 02:06:17;;;;;;;13.63;8.23;;;;;;;-3.46;77.06;98917.97;5116551;28;20921;-74
2024/01/10 02:08:43;;;;;;;13.07;8.17;;;;;;;-3.50;77.68;98912.16;5116874;28;20457;-74
2024/01/10 02:11:10;;;;;;;13.77;8.87;;;;;;;-3.57;78.07;98918.75;5116737;28;20455;-74
2024/01/10 02:13:36;;;;;;;12.07;7.90;;;;;;;-3.40;77.25;98917.50;5116703;28;20475;-74
2024/01/10 02:16:05;;;;;;;15.60;8.77;;;;;;;-3.41;77.24;98913.25;5116456;28;20438;-74
2024/01/10 02:18:31;;;;;;;13.50;8.37;;;;;;;-3.47;77.80;98917.16;5116711;28;20445;-74
2024/01/10 02:20:57;;;;;;;13.40;8.00;;;;;;;-3.52;78.24;98906.22;5116504;27;20453;-74
2024/01/10 02:23:24;;;;;;;13.10;8.07;;;;;;;-3.60;79.12;98918.13;5116287;28;20449;-74
2024/01/10 02:25:50;;;;;;;14.27;8.83;;;;;;;-3.51;78.43;98915.72;5116177;28;20914;-74
2024/01/10 02:28:17;;;;;;;14.70;8.37;;;;;;;-3.65;80.69;98905.50;5116456;28;20439;-74
2024/01/10 02:30:43;;;;;;;14.50;8.70;;;;;;;-3.69;81.13;98906.66;5116020;28;20451;-74
2024/01/10 02:33:09;;;;;;;13.50;8.57;;;;;;;-3.77;81.47;98902.91;5115965;28;20837;-74
2024/01/10 02:35:36;;;;;;;13.33;8.67;;;;;;;-3.83;81.77;98899.00;5116281;28;20461;-74
2024/01/10 02:38:02;;;;;;;14.13;8.53;;;;;;;-3.95;82.77;98902.47;5116237;28;20442;-74
2024/01/10 02:40:29;;;;;;;13.97;9.10;;;;;;;-3.94;87.06;98896.31;5116211;28;20451;-74
2024/01/10 02:42:55;;;;;;;14.10;9.17;;;;;;;-3.85;83.04;98895.69;5116178;28;20431;-74
2024/01/10 02:45:21;;;;;;;14.43;8.80;;;;;;;-3.90;82.94;98895.19;5115773;28;20926;-74
2024/01/10 02:47:48;;;;;;;11.77;8.83;;;;;;;-3.93;86.33;98897.16;5116091;28;20769;-74
2024/01/10 02:50:14;;;;;;;14.27;8.73;;;;;;;-4.00;83.97;98888.97;5115894;28;20463;-74
2024/01/10 02:52:40;;;;;;;13.70;8.90;;;;;;;-4.01;84.67;98897.72;5116037;28;20440;-74
2024/01/10 02:55:07;;;;;;;12.90;8.50;;;;;;;-4.02;87.14;98901.22;5115699;28;20483;-74
2024/01/10 02:57:34;;;;;;;13.70;8.63;;;;;;;-3.99;86.33;98898.44;5115870;28;20505;-74
2024/01/10 03:00:00;;;;;;;14.57;8.90;;;;;;;-4.03;87.94;98894.38;5115707;28;20463;-74
2024/01/10 03:02:26;;;;;;;16.07;8.87;;;;;;;-4.11;85.81;98891.50;5115216;28;20432;-74
2024/01/10 03:04:53;;;;;;;13.70;8.63;;;;;;;-4.03;84.72;98889.19;5115720;28;20430;-74
2024/01/10 03:07:19;;;;;;;14.27;8.73;;;;;;;-4.02;84.49;98890.84;5115733;28;20436;-74
2024/01/10 03:09:46;;;;;;;13.97;8.30;;;;;;;-4.06;83.28;98892.03;5116090;28;20457;-74
2024/01/10 03:12:12;;;;;;;12.47;8.40;;;;;;;-4.08;83.39;98893.03;5115308;28;20431;-74
2024/01/10 03:14:39;;;;;;;18.50;9.13;;;;;;;-4.07;84.71;98884.34;5115519;28;20520;-74
2024/01/10 03:17:05;;;;;;;12.90;8.50;;;;;;;-3.99;85.02;98884.59;5115727;28;20456;-74
2024/01/10 03:19:32;;;;;;;12.73;7.80;;;;;;;-3.84;84.09;98878.34;5115371;28;20455;-74
2024/01/10 03:21:58;;;;;;;14.20;8.43;;;;;;;-3.78;82.53;98868.34;5115092;28;20439;-74
2024/01/10 03:24:26;;;;;;;12.73;7.63;;;;;;;-3.75;81.54;98877.69;5114997;28;20431;-74
2024/01/10 03:26:53;;;;;;;12.93;7.97;;;;;;;-3.69;83.00;98877.22;5114973;28;20436;-74
2024/01/10 03:29:19;;;;;;;10.90;7.47;;;;;;;-3.65;82.38;98868.28;5114931;28;20458;-74
2024/01/10 03:31:45;;;;;;;11.57;7.90;;;;;;;-3.58;81.07;98869.47;5115056;28;20509;-74
2024/01/10 03:34:12;;;;;;;12.70;7.73;;;;;;;-3.45;80.76;98865.88;5114921;28;20490;-74
2024/01/10 03:36:38;;;;;;;11.00;8.07;;;;;;;-3.63;80.33;98867.22;5115101;28;20431;-74
2024/01/10 03:39:04;;;;;;;14.37;9.07;;;;;;;-3.71;83.48;98871.31;5114946;28;20504;-74
2024/01/10 03:41:31;;;;;;;13.40;7.80;;;;;;;-3.60;81.10;98867.00;5115004;28;20427;-74
2024/01/10 03:43:57;;;;;;;12.17;8.33;;;;;;;-3.58;82.26;98862.50;5114577;28;20438;-74
2024/01/10 03:46:23;;;;;;;12.57;7.80;;;;;;;-3.53;81.02;98872.59;5114771;28;20428;-74
2024/01/10 03:48:51;;;;;;;10.63;7.53;;;;;;;-3.48;80.76;98875.69;5114683;28;20431;-74
2024/01/10 03:51:19;;;;;;;14.67;7.93;;;;;;;-3.39;80.68;98865.41;5114496;28;20475;-74
2024/01/10 03:53:46;;;;;;;13.13;8.77;;;;;;;-3.55;82.11;98870.09;5115327;28;20471;-74
2024/01/10 03:56:13;;;;;;;11.33;7.43;;;;;;;-3.48;82.52;98875.69;5114305;28;20445;-74
2024/01/10 03:58:40;;;;;;;15.70;8.77;;;;;;;-3.58;82.14;98869.47;5114706;28;20444;-74
2024/01/10 04:01:10;;;;;;;12.77;7.43;;;;;;;-3.36;79.80;98869.56;5114146;28;20447;-74
2024/01/10 04:03:36;;;;;;;12.17;8.37;;;;;;;-3.47;80.51;98872.97;5114045;28;20427;-74
2024/01/10 04:06:03;;;;;;;12.97;8.17;;;;;;;-3.53;82.33;98870.00;5114181;28;20427;-74
2024/01/10 04:08:30;;;;;;;14.37;7.87;;;;;;;-3.55;81.81;98877.91;5114393;28;20439;-74
2024/01/10 04:10:57;;;;;;;14.17;8.57;;;;;;;-3.63;81.15;98874.16;5114124;28;20535;-74
2024/01/10 04:13:24;;;;;;;12.47;8.23;;;;;;;-3.59;83.02;98879.06;5113340;28;20881;-74
2024/01/10 04:15:50;;;;;;;15.13;8.60;;;;;;;-3.56;83.07;98878.00;5114130;28;20432;-74
2024/01/10 04:18:16;;;;;;;12.87;8.37;;;;;;;-3.55;83.00;98882.25;5114027;28;20537;-74
2024/01/10 04:20:43;;;;;;;14.90;8.77;;;;;;;-3.56;83.19;98881.44;5113866;28;20516;-74
2024/01/10 04:23:10;;;;;;;11.57;8.80;;;;;;;-3.56;85.55;98884.03;5113992;27;20450;-74
2024/01/10 04:25:36;;;;;;;13.43;8.97;;;;;;;-3.52;83.86;98885.44;5114162;28;20435;-74
2024/01/10 04:28:03;;;;;;;14.67;8.60;;;;;;;-3.46;84.39;98879.81;5114120;28;20438;-74
2024/01/10 04:30:29;;;;;;;13.33;8.40;;;;;;;-3.47;83.29;98878.16;5113733;28;20809;-74
2024/01/10 04:32:55;;;;;;;12.57;7.60;;;;;;;-3.44;84.93;98877.94;5113447;28;20805;-74
2024/01/10 04:35:22;;;;;;;12.57;9.00;;;;;;;-3.51;88.82;98879.34;5113170;28;20997;-74
2024/01/10 04:37:49;;;;;;;13.83;8.50;;;;;;;-3.41;85.13;98879.47;5113840;28;20439;-74
2024/01/10 04:40:15;;;;;;;16.03;8.73;;;;;;;-3.53;85.05;98878.59;5113754;28;20447;-74
2024/01/10 04:42:41;;;;;;;13.70;7.97;;;;;;;-3.42;86.40;98863.06;5113799;28;20427;-74
2024/01/10 04:45:08;;;;;;;11.70;7.70;;;;;;;-3.40;84.66;98871.56;5113714;28;20439;-74
2024/01/10 04:47:34;;;;;;;13.27;8.33;;;;;;;-3.37;86.13;98873.09;5113379;28;20919;-74
2024/01/10 04:50:01;;;;;;;14.37;9.03;;;;;;;-3.32;85.34;98866.63;5114318;28;20462;-74
2024/01/10 04:52:27;;;;;;;14.33;8.47;;;;;;;-3.37;86.59;98867.91;5113726;28;20530;-74
2024/01/10 04:54:54;;;;;;;15.90;8.43;;;;;;;-3.30;84.64;98864.75;5113616;28;20467;-74
2024/01/10 04:57:20;;;;;;;12.70;8.23;;;;;;;-3.27;84.05;98861.94;5113562;28;20431;-74
2024/01/10 04:59:47;;;;;;;14.40;9.10;;;;;;;-3.37;85.30;98863.56;5113422;28;20458;-74
2024/01/10 05:02:13;;;;;;;11.93;8.13;;;;;;;-3.27;84.24;98871.47;5113326;28;20442;-74
2024/01/10 05:04:39;;;;;;;13.70;8.83;;;;;;;-3.20;82.41;98870.91;5113342;28;20431;-74
2024/01/10 05:07:06;;;;;;;11.50;8.03;;;;;;;-3.28;82.62;98873.28;5113157;28;20450;-74
2024/01/10 05:09:33;;;;;;;12.67;8.07;;;;;;;-3.26;83.80;98881.78;5112991;28;20957;-74
2024/01/10 05:11:59;;;;;;;13.90;8.60;;;;;;;-3.27;83.81;98881.88;5113295;28;20439;-74
2024/01/10 05:14:25;;;;;;;15.20;9.07;;;;;;;-3.37;85.79;98889.53;5113461;28;20475;-74
2024/01/10 05:16:53;;;;;;;15.73;8.70;;;;;;;-3.22;83.21;98883.22;5113218;28;20977;-74
2024/01/10 05:19:19;;;;;;;15.53;8.93;;;;;;;-3.34;84.49;98889.28;5113502;28;20456;-74
2024/01/10 05:21:46;;;;;;;11.93;8.67;;;;;;;-3.31;85.96;98883.03;5113039;28;20455;-74
2024/01/10 05:24:12;;;;;;;12.57;9.10;;;;;;;-3.32;85.57;98881.41;5113537;28;20427;-74
2024/01/10 05:26:39;;;;;;;16.43;8.87;;;;;;;-3.27;84.58;98887.94;5117017;28;20804;-73
2024/01/10 05:29:05;;;;;;;15.07;9.37;;;;;;;-3.32;84.25;98874.44;5116800;28;20431;-73
2024/01/10 05:31:31;;;;;;;17.73;9.40;;;;;;;-3.46;84.41;98889.38;5117244;28;20529;-73
2024/01/10 05:33:58;;;;;;;14.57;8.70;;;;;;;-3.47;84.05;98877.31;5116992;28;20479;-73
2024/01/10 05:36:24;;;;;;;14.23;8.97;;;;;;;-3.50;85.33;98868.00;5117237;28;20439;-73
2024/01/10 05:38:51;;;;;;;15.93;9.67;;;;;;;-3.48;86.52;98881.69;5117155;28;20838;-73
2024/01/10 05:41:18;;;;;;;16.37;9.53;;;;;;;-3.49;88.07;98885.22;5117034;28;20431;-73
2024/01/10 05:43:44;;;;;;;17.10;9.47;;;;;;;-3.51;87.58;98875.88;5116885;28;20800;-73
2024/01/10 05:46:11;;;;;;;14.37;9.50;;;;;;;-3.46;89.36;98877.22;5116873;28;20446;-73
2024/01/10 05:48:37;;;;;;;14.57;9.60;;;;;;;-3.32;86.70;98871.84;5116740;28;20431;-73
2024/01/10 05:51:04;;;;;;;15.57;9.50;;;;;;;-3.45;89.22;98880.63;5116332;28;20455;-73
2024/01/10 05:53:30;;;;;;;13.47;8.90;;;;;;;-3.47;88.39;98872.97;5116478;28;20435;-73
2024/01/10 05:55:57;;;;;;;17.07;9.90;;;;;;;-3.53;87.97;98876.00;5116609;28;20482;-74
2024/01/10 05:58:23;;;;;;;15.43;9.67;;;;;;;-3.55;89.39;98877.06;5116430;28;20432;-73
2024/01/10 06:00:49;;;;;;;15.17;9.33;;;;;;;-3.62;88.40;98879.25;5116398;28;20457;-74
2024/01/10 06:03:16;;;;;;;14.07;9.30;;;;;;;-3.59;87.78;98878.22;5116457;28;20495;-74
2024/01/10 06:05:46;;;;;;;14.57;9.17;;;;;;;-3.59;88.58;98886.84;5116812;28;20432;-74
2024/01/10 06:08:18;;;;;;;16.67;9.37;;;;;;;-3.59;88.90;98879.06;5115941;28;20440;-74
2024/01/10 06:10:46;;;;;;;13.60;9.10;;;;;;;-3.49;91.67;98885.22;5116421;28;20839;-74
2024/01/10 06:13:15;;;;;;;17.40;9.73;;;;;;;-3.45;90.98;98881.47;5115978;28;20439;-74
2024/01/10 06:15:44;;;;;;;14.20;9.63;;;;;;;-3.47;93.10;98880.78;5115446;28;20479;-74
2024/01/10 06:18:15;;;;;;;18.47;9.83;;;;;;;-3.48;93.48;98879.09;5115773;28;20428;-74
2024/01/10 06:20:48;;;;;;;16.37;9.13;;;;;;;-3.47;89.23;98891.16;5115409;28;20464;-74
2024/01/10 06:23:21;;;;;;;18.53;9.37;;;;;;;-3.54;92.92;98889.94;5115579;28;20450;-74
2024/01/10 06:25:49;;;;;;;16.23;9.27;;;;;;;-3.55;93.96;98890.88;5115636;28;20783;-74
2024/01/10 06:28:16;;;;;;;14.50;9.10;;;;;;;-3.59;91.40;98888.59;5115588;28;20431;-74
2024/01/10 06:30:42;;;;;;;17.10;9.80;;;;;;;-3.58;92.58;98891.09;5115515;28;20472;-74
2024/01/10 06:33:08;;;;;;;13.77;9.27;;;;;;;-3.66;96.14;98884.81;5115833;28;20519;-74
2024/01/10 06:35:35;;;;;;;18.40;10.50;;;;;;;-3.46;91.14;98876.38;5115164;28;20498;-74
2024/01/10 06:38:03;;;;;;;16.07;9.67;;;;;;;-3.61;89.78;98887.91;5115062;28;20432;-74
2024/01/10 06:40:30;;;;;;;14.70;9.37;;;;;;;-3.63;88.35;98890.59;5115253;28;20467;-74
2024/01/10 06:42:56;;;;;;;14.40;9.20;;;;;;;-3.59;88.86;98889.44;5115339;28;20439;-74
2024/01/10 06:45:23;;;;;;;18.53;10.20;;;;;;;-3.61;88.23;98899.09;5115114;28;20929;-74
2024/01/10 06:47:49;;;;;;;17.07;9.63;;;;;;;-3.75;89.69;98901.06;5114877;28;20923;-74
2024/01/10 06:50:30;;;;;;;15.50;9.20;;;;;;;-3.81;90.04;98897.13;5115038;28;20479;-74
2024/01/10 06:53:03;;;;;;;13.53;8.73;;;;;;;-3.92;90.28;98894.47;5112911;28;20439;-74
2024/01/10 06:55:34;;;;;;;13.30;8.97;;;;;;;-3.96;92.73;98905.16;5114483;28;20459;-74
2024/01/10 06:58:04;;;;;;;15.47;9.67;;;;;;;-4.05;94.21;98906.66;5114789;28;20447;-74
2024/01/10 07:00:39;;;;;;;13.30;9.47;;;;;;;-3.99;92.56;98906.22;5114605;28;20451;-74
2024/01/10 07:03:08;;;;;;;17.40;9.10;;;;;;;-4.01;93.92;98910.69;5113832;28;20915;-74
2024/01/10 07:05:35;;;;;;;16.20;10.30;;;;;;;-4.01;93.61;98900.31;5114594;28;20789;-74
2024/01/10 07:08:04;;;;;;;14.97;10.23;;;;;;;-3.90;92.13;98892.59;5114632;28;20510;-74
2024/01/10 07:10:34;;;;;;;15.57;9.80;;;;;;;-3.99;92.43;98895.81;5114601;28;20909;-74
2024/01/10 07:13:04;;;;;;;15.53;9.70;;;;;;;-3.94;92.10;98898.94;5114455;28;20491;-74
2024/01/10 07:15:31;;;;;;;16.93;10.10;;;;;;;-4.02;94.63;98897.81;5114290;28;20497;-74
2024/01/10 07:18:02;;;;;;;18.23;10.93;;;;;;;-4.18;97.65;98905.00;5114407;28;20488;-74
2024/01/10 07:20:30;;;;;;;20.10;10.57;;;;;;;-4.03;100.00;98907.38;5114634;28;20519;-74
2024/01/10 07:22:56;;;;;;;20.27;11.03;;;;;;;-4.04;99.42;98913.50;5114218;28;20451;-74
2024/01/10 07:25:25;;;;;;;18.43;9.80;;;;;;;-4.00;100.00;98914.94;5114365;28;20434;-74
2024/01/10 07:27:52;;;;;;;21.00;10.87;;;;;;;-4.01;100.00;98913.28;5114461;28;20467;-74
2024/01/10 07:30:19;;;;;;;18.40;10.20;;;;;;;-4.02;100.00;98914.22;5113940;28;20466;-74
2024/01/10 07:32:47;;;;;;;15.70;10.00;;;;;;;-4.07;100.00;98913.72;5114454;28;20908;-74
2024/01/10 07:35:14;;;;;;;15.93;10.23;;;;;;;-4.08;100.00;98927.63;5114476;28;20478;-74
2024/01/10 07:37:42;;;;;;;17.57;10.33;;;;;;;-4.07;100.00;98915.50;5114564;28;20435;-74
2024/01/10 07:40:10;;;;;;;15.93;10.10;;;;;;;-4.01;99.91;98918.50;5114256;28;20973;-74
2024/01/10 07:42:37;;;;;;;21.30;10.53;;;;;;;-4.01;100.00;98925.44;5114779;28;20444;-74
2024/01/10 07:45:05;;;;;;;16.43;10.47;;;;;;;-3.99;100.00;98926.16;5114736;28;20449;-74
2024/01/10 07:47:34;;;;;;;19.27;10.53;;;;;;;-3.89;100.00;98935.78;5114413;28;20504;-74
2024/01/10 07:50:00;;;;;;;18.93;10.87;;;;;;;-3.87;99.36;98931.34;5114023;28;20460;-74
2024/01/10 07:52:27;;;;;;;15.03;10.07;;;;;;;-3.78;99.96;98935.03;5114520;28;20435;-74
2024/01/10 07:54:53;;;;;;;16.90;10.60;;;;;;;-3.68;98.03;98942.06;5113989;28;20486;-74
2024/01/10 07:57:19;;;;;;;15.53;10.33;;;;;;;-3.70;100.00;98933.53;5113958;28;20439;-74
2024/01/10 07:59:46;;;;;;;16.73;11.37;;;;;;;-3.57;97.72;98939.53;5113415;28;20462;-74
2024/01/10 08:02:12;;;;;;;15.00;9.67;;;;;;;-3.34;94.50;98945.69;5113990;28;20523;-74
2024/01/10 08:04:39;;;;;;;18.10;10.63;;;;;;;-3.34;91.82;98941.28;5114295;28;20427;-74
2024/01/10 08:07:05;;;;;;;15.93;10.47;;;;;;;-3.39;91.83;98947.78;5113570;28;20930;-74
2024/01/10 08:09:31;;;;;;;20.43;10.77;;;;;;;-3.35;99.47;98947.44;5113657;28;20466;-74
2024/01/10 08:11:58;;;;;;;19.60;10.90;;;;;;;-3.24;95.43;98949.25;5113702;28;20440;-74
2024/01/10 08:14:24;;;;;;;17.20;10.40;;;;;;;-3.11;93.40;98955.25;5113713;28;20481;-74
2024/01/10 08:16:53;;;;;;;16.17;10.03;;;;;;;-3.06;95.44;98961.78;5113816;28;20449;-74
2024/01/10 08:19:19;;;;;;;17.07;10.53;;;;;;;-3.04;94.50;98959.88;5113920;28;20462;-74
2024/01/10 08:21:46;;;;;;;16.10;11.23;;;;;;;-2.98;95.32;98954.22;5113783;28;20494;-74
2024/01/10 08:24:12;;;;;;;15.30;10.50;;;;;;;-2.82;93.49;98957.34;5113496;28;20941;-74
2024/01/10 08:26:38;;;;;;;15.50;10.43;;;;;;;-2.85;93.21;98962.78;5113678;28;20435;-74
2024/01/10 08:29:05;;;;;;;16.23;10.60;;;;;;;-2.79;91.91;98954.53;5113736;28;20428;-74
2024/01/10 08:31:31;;;;;;;17.07;10.93;;;;;;;-2.70;92.93;98960.81;5113466;28;20435;-74
2024/01/10 08:33:57;;;;;;;16.80;10.93;;;;;;;-2.54;88.72;98964.75;5113715;28;20431;-74
2024/01/10 08:36:24;;;;;;;17.50;10.97;;;;;;;-2.64;90.13;98966.38;5113442;28;20463;-74
2024/01/10 08:38:51;;;;;;;17.00;11.23;;;;;;;-2.55;89.28;98972.66;5113173;28;20438;-74
2024/01/10 08:41:19;;;;;;;18.87;10.97;;;;;;;-2.58;89.97;98976.31;5113210;28;20963;-74
2024/01/10 08:43:46;;;;;;;18.23;11.50;;;;;;;-2.48;89.99;98971.28;5113616;28;20442;-74
2024/01/10 08:46:13;;;;;;;18.27;11.13;;;;;;;-2.31;89.19;98974.25;5113520;28;20419;-74
2024/01/10 08:48:39;;;;;;;17.40;11.37;;;;;;;-2.12;84.78;98974.50;5113827;28;20435;-74
2024/01/10 08:51:06;;;;;;;17.40;11.00;;;;;;;-2.50;87.81;98975.75;5113669;28;20524;-74
2024/01/10 08:53:32;;;;;;;19.73;12.23;;;;;;;-2.51;87.54;98974.09;5113447;28;20431;-74
2024/01/10 08:55:59;;;;;;;22.53;12.53;;;;;;;-2.46;85.29;98977.19;5113477;28;20475;-74
2024/01/10 08:58:25;;;;;;;20.60;11.73;;;;;;;-2.45;87.24;98979.66;5112934;28;20530;-74
2024/01/10 09:00:51;;;;;;;17.63;11.50;;;;;;;-2.25;89.02;98984.19;5116847;28;20459;-74
2024/01/10 09:03:18;;;;;;;16.80;11.07;;;;;;;-2.18;84.13;98980.19;5117405;28;20519;-74
2024/01/10 09:05:44;;;;;;;22.37;13.03;;;;;;;-2.27;83.03;98980.88;5117356;28;20431;-74
2024/01/10 09:08:11;;;;;;;20.03;12.80;;;;;;;-2.49;85.36;98983.44;5117371;28;20442;-74
2024/01/10 09:10:38;;;;;;;21.67;12.63;;;;;;;-2.47;86.84;98970.31;5117886;28;20459;-74
2024/01/10 09:13:04;;;;;;;23.43;13.03;;;;;;;-2.45;85.24;98990.09;5118594;28;20436;-74
2024/01/10 09:15:31;;;;;;;18.93;13.20;;;;;;;-2.61;85.92;98989.59;5117481;28;20479;-74
2024/01/10 09:17:56;;;;;;;19.13;12.47;;;;;;;-2.41;84.15;98995.88;5117306;28;20431;-73
2024/01/10 09:20:23;;;;;;;19.03;12.73;;;;;;;-2.22;84.53;98996.97;5117115;28;20536;-73
2024/01/10 09:22:50;;;;;;;21.87;13.93;;;;;;;-2.09;85.08;98992.50;5117141;28;20215;-73
2024/01/10 09:25:17;;;;;;;21.83;12.93;;;;;;;-1.90;86.21;98992.72;5117472;28;20530;-73
2024/01/10 09:27:44;;;;;;;19.77;13.40;;;;;;;-1.95;83.56;98991.44;5116925;27;20945;-73
2024/01/10 09:30:12;;;;;;;20.57;14.13;;;;;;;-1.95;84.19;98997.47;5116901;27;20500;-73
2024/01/10 09:32:38;;;;;;;24.63;13.93;;;;;;;-1.88;82.64;99000.44;5116906;28;20435;-73
2024/01/10 09:35:05;;;;;;;25.00;14.00;;;;;;;-2.03;84.35;99002.44;5116671;28;20633;-73
2024/01/10 09:37:31;;;;;;;22.33;13.27;;;;;;;-1.85;81.99;99000.22;5117183;28;20443;-73
2024/01/10 09:39:58;;;;;;;22.43;13.17;;;;;;;-2.06;82.66;99005.31;5117118;28;20447;-73
2024/01/10 09:42:25;;;;;;;25.67;14.07;;;;;;;-1.93;83.85;99000.81;5116644;28;20496;-73
2024/01/10 09:44:52;;;;;;;25.30;14.17;;;;;;;-1.93;84.15;99007.78;5117088;28;20520;-73
2024/01/10 09:47:21;;;;;;;23.90;14.00;;;;;;;-1.90;84.29;99008.38;5116637;28;20896;-73
2024/01/10 09:49:48;;;;;;;25.97;13.60;;;;;;;-1.96;85.03;99010.63;5117018;28;20478;-73
2024/01/10 09:52:29;;;;;;;22.33;13.47;;;;;;;-1.92;84.74;99009.44;5116848;28;20438;-73
2024/01/10 09:54:57;;;;;;;20.40;13.63;;;;;;;-1.62;83.09;99000.06;5115711;28;20420;-73
2024/01/10 09:57:27;;;;;;;26.33;13.60;;;;;;;-1.54;82.42;98999.47;5116611;27;20431;-73
2024/01/10 09:59:54;;;;;;;22.97;14.00;;;;;;;-1.60;83.69;99000.78;5116579;28;20467;-73
2024/01/10 10:02:22;;;;;;;24.33;14.23;;;;;;;-1.52;82.78;98990.59;5116574;28;20824;-73
2024/01/10 10:04:57;;;;;;;24.40;15.97;;;;;;;-1.66;83.08;99000.44;5116488;28;20455;-73
2024/01/10 10:07:24;;;;;;;20.67;14.17;;;;;;;-1.64;83.37;98988.94;5116134;28;20801;-73
2024/01/10 10:09:53;;;;;;;22.03;14.27;;;;;;;-1.62;84.45;98988.81;5116466;28;20817;-73
2024/01/10 10:12:19;;;;;;;23.43;15.20;;;;;;;-1.57;83.01;98991.88;5115140;28;20836;-73
2024/01/10 10:14:46;;;;;;;22.67;14.63;;;;;;;-1.56;83.39;98996.16;5116143;28;20915;-73
2024/01/10 10:17:18;;;;;;;23.67;14.57;;;;;;;-1.64;83.53;98991.53;5116185;28;20573;-73
2024/01/10 10:19:45;;;;;;;20.70;14.80;;;;;;;-1.53;83.19;98986.28;5115877;28;20462;-73
2024/01/10 10:22:12;;;;;;;23.47;15.27;;;;;;;-1.48;82.88;98978.94;5115818;28;20448;-73
2024/01/10 10:24:41;;;;;;;21.73;14.53;;;;;;;-1.42;82.51;98969.81;5116006;27;20450;-73
2024/01/10 10:27:12;;;;;;;23.53;15.27;;;;;;;-1.20;81.63;98978.41;5116248;28;20442;-73
2024/01/10 10:29:39;;;;;;;21.00;14.53;;;;;;;-1.17;81.80;98972.94;5115459;28;20988;-73
2024/01/10 10:32:06;;;;;;;25.10;16.60;;;;;;;-1.27;82.94;98977.25;5115732;28;20446;-73
2024/01/10 10:34:33;;;;;;;20.47;14.70;;;;;;;-1.27;83.98;98976.41;5115770;27;20440;-73
2024/01/10 10:36:59;;;;;;;25.07;15.67;;;;;;;-1.26;84.14;98971.06;5115417;28;20234;-73
2024/01/10 10:39:26;;;;;;;21.90;16.00;;;;;;;-1.24;83.34;98969.19;5115807;28;20451;-73
2024/01/10 10:41:54;;;;;;;23.23;15.43;;;;;;;-1.22;84.60;98972.47;5115794;28;20203;-73
2024/01/10 10:44:25;;;;;;;22.80;15.67;;;;;;;-1.27;83.21;98964.19;5115850;28;20768;-74
2024/01/10 10:46:55;;;;;;;23.60;16.97;;;;;;;-1.18;83.92;98970.44;5115929;28;20430;-74
2024/01/10 10:49:31;;;;;;;22.00;15.33;;;;;;;-0.94;82.89;98981.53;5115710;28;20524;-74
2024/01/10 10:52:00;;;;;;;22.97;15.73;;;;;;;-0.94;83.39;98973.69;5115673;28;20419;-74
2024/01/10 10:54:31;;;;;;;24.17;16.00;;;;;;;-0.91;83.54;98974.25;5115831;28;20539;-74
2024/01/10 10:57:00;;;;;;;21.70;15.33;;;;;;;-0.84;81.49;98985.88;5115385;28;20227;-74
2024/01/10 10:59:28;;;;;;;23.33;16.40;;;;;;;-1.16;82.46;98968.56;5115180;28;20234;-74
2024/01/10 11:01:56;;;;;;;25.33;16.10;;;;;;;-1.10;84.56;98974.09;5115572;28;20432;-74
2024/01/10 11:04:23;;;;;;;23.30;15.57;;;;;;;-0.77;81.67;98978.38;5115437;27;20203;-74
2024/01/10 11:06:50;;;;;;;23.87;16.17;;;;;;;-0.54;80.44;98982.53;5114842;27;20203;-74
2024/01/10 11:09:22;;;;;;;24.50;16.40;;;;;;;-0.95;84.13;98974.66;5114944;28;20234;-74
2024/01/10 11:12:07;;;;;;;20.03;15.73;;;;;;;-0.87;82.72;98975.66;5115333;28;20191;-74
2024/01/10 11:14:51;;;;;;;25.70;16.73;;;;;;;-0.89;82.41;98967.13;5115069;28;20430;-74
2024/01/10 11:17:45;;;;;;;26.03;16.40;;;;;;;-0.73;81.63;98971.91;5114632;28;20670;-74
2024/01/10 11:20:19;;;;;;;24.77;16.13;;;;;;;-0.76;83.28;98973.00;5117412;28;20605;-73
2024/01/10 11:23:24;;;;;;;26.23;17.27;;;;;;;-0.96;85.18;98971.19;5114934;28;20463;-73